Time;durP1;ratioP1;P1;durP2;ratioP2;P2;SDS_P1;SDS_P2;PMS_P1;PMS_P2;Temp;Humidity;BMP_temperature;BMP_pressure;BME280_temperature;BME280_humidity;BME280_pressure;Samples;Min_cycle;Max_cycle;Signal;HPM_P1;HPM_P2
2021/08/16 00:00:56;;;;;;;6.20;4.13;;;16.80;99.90;16.40;96488.00;;;;5046902;28;20221;-65
2021/08/16 00:03:45;;;;;;;8.27;4.10;;;16.80;99.90;16.40;96489.00;;;;5060756;28;20765;-65
2021/08/16 00:06:35;;;;;;;8.77;3.47;;;16.70;99.90;16.30;96484.00;;;;5067598;28;20195;-65
2021/08/16 00:09:24;;;;;;;6.33;4.10;;;16.70;99.90;16.40;96488.00;;;;5080488;28;20390;-65
2021/08/16 00:12:13;;;;;;;4.70;3.00;;;16.60;99.90;16.40;96495.00;;;;5087785;28;20227;-65
2021/08/16 00:15:02;;;;;;;7.63;2.97;;;16.60;99.90;16.40;96503.00;;;;5087391;28;20489;-65
2021/08/16 00:17:51;;;;;;;5.30;3.20;;;16.60;99.90;16.50;96489.00;;;;5056179;28;20200;-66
2021/08/16 00:20:40;;;;;;;3.90;3.13;;;16.60;99.90;16.50;96479.00;;;;5047691;28;20201;-66
2021/08/16 00:23:31;;;;;;;3.77;3.20;;;16.70;99.90;16.50;96473.00;;;;5048160;28;20223;-65
2021/08/16 00:26:20;;;;;;;3.27;2.63;;;16.70;99.90;16.40;96477.00;;;;5048069;28;20197;-66
2021/08/16 00:29:09;;;;;;;4.03;3.43;;;16.70;99.90;16.30;96473.00;;;;5048509;28;20202;-66
2021/08/16 00:31:57;;;;;;;6.40;3.37;;;16.60;99.90;16.40;96476.00;;;;5046124;28;20220;-66
2021/08/16 00:34:46;;;;;;;6.80;3.40;;;16.60;99.90;16.30;96485.00;;;;5044829;28;20231;-65
2021/08/16 00:37:35;;;;;;;4.23;3.50;;;16.60;99.90;16.40;96489.00;;;;5048043;28;20204;-66
2021/08/16 00:40:26;;;;;;;5.43;3.47;;;16.60;99.90;16.40;96492.00;;;;5048509;28;20206;-66
2021/08/16 00:43:14;;;;;;;6.50;3.37;;;16.60;99.90;16.40;96494.00;;;;5047555;28;20205;-66
2021/08/16 00:46:06;;;;;;;6.07;3.57;;;16.60;99.90;16.40;96485.00;;;;5054129;28;20196;-66
2021/08/16 00:48:55;;;;;;;5.40;3.23;;;16.60;99.90;16.40;96492.00;;;;5065834;28;20575;-66
2021/08/16 00:51:44;;;;;;;4.17;3.70;;;16.60;99.90;16.40;96493.00;;;;5066697;28;20219;-66
2021/08/16 00:54:33;;;;;;;3.13;2.83;;;16.60;99.90;16.40;96491.00;;;;5065735;28;20228;-65
2021/08/16 00:57:26;;;;;;;7.63;3.40;;;16.60;99.90;16.20;96500.00;;;;5066438;28;20210;-65
2021/08/16 01:00:15;;;;;;;6.87;3.30;;;16.60;99.90;16.20;96509.00;;;;5066708;28;20204;-66
2021/08/16 01:03:05;;;;;;;7.67;4.90;;;16.50;99.90;16.20;96526.00;;;;5065352;28;20203;-66
2021/08/16 01:05:54;;;;;;;6.47;3.63;;;16.40;99.90;16.30;96524.00;;;;5066860;28;20200;-66
2021/08/16 01:08:44;;;;;;;3.97;3.17;;;16.40;99.90;16.30;96538.00;;;;5064814;28;20278;-65
2021/08/16 01:11:34;;;;;;;5.87;3.93;;;16.50;99.90;16.30;96546.00;;;;5086678;28;20234;-65
2021/08/16 01:14:24;;;;;;;4.17;3.70;;;16.50;99.90;16.40;96546.00;;;;5085432;28;20682;-65
2021/08/16 01:17:13;;;;;;;5.23;3.23;;;16.50;99.90;16.40;96537.00;;;;5085806;28;20320;-65
2021/08/16 01:20:05;;;;;;;5.00;3.20;;;16.50;99.90;16.40;96527.00;;;;5084944;28;20697;-66
2021/08/16 01:22:56;;;;;;;6.17;4.10;;;16.50;99.90;16.30;96527.00;;;;5085125;28;20203;-66
2021/08/16 01:25:48;;;;;;;4.80;3.33;;;16.50;99.90;16.00;96538.00;;;;5084916;28;20198;-65
2021/08/16 01:28:38;;;;;;;3.33;3.00;;;16.40;99.90;16.00;96528.00;;;;5087009;28;20196;-65
2021/08/16 01:31:27;;;;;;;4.43;3.30;;;16.30;99.90;16.10;96525.00;;;;5086222;28;20231;-65
2021/08/16 01:34:16;;;;;;;6.63;3.13;;;16.30;99.90;16.00;96522.00;;;;5085246;28;20222;-65
2021/08/16 01:37:05;;;;;;;6.80;4.17;;;16.30;99.90;16.10;96511.00;;;;5084927;28;20204;-66
2021/08/16 01:39:54;;;;;;;5.53;3.07;;;16.30;99.90;16.10;96512.00;;;;5086423;28;20203;-66
2021/08/16 01:42:43;;;;;;;5.53;2.97;;;16.30;99.90;16.00;96516.00;;;;5085230;28;20235;-65
2021/08/16 01:45:34;;;;;;;8.47;3.67;;;16.20;99.90;15.60;96521.00;;;;5076904;28;20663;-66
2021/08/16 01:48:27;;;;;;;8.87;3.67;;;16.10;99.90;15.60;96519.00;;;;5064603;28;20220;-66
2021/08/16 01:51:34;;;;;;;5.27;3.60;;;16.00;99.90;15.80;96523.00;;;;5064899;28;20309;-66
2021/08/16 01:54:23;;;;;;;7.60;5.13;;;16.00;99.90;15.70;96509.00;;;;5063924;28;20200;-65
2021/08/16 01:57:13;;;;;;;8.77;3.87;;;15.90;99.90;15.80;96519.00;;;;5066001;28;20301;-65
2021/08/16 02:00:03;;;;;;;4.60;3.47;;;15.90;99.90;15.80;96522.00;;;;5064397;28;20202;-65
2021/08/16 02:02:53;;;;;;;3.60;3.30;;;15.90;99.90;15.80;96520.00;;;;5064510;28;20200;-66
2021/08/16 02:05:42;;;;;;;5.80;3.73;;;16.00;99.90;15.70;96516.00;;;;5064466;28;20206;-65
2021/08/16 02:08:31;;;;;;;4.90;4.13;;;15.90;99.90;15.70;96522.00;;;;5070801;28;20203;-65
2021/08/16 02:11:20;;;;;;;4.27;3.43;;;15.90;99.90;15.60;96515.00;;;;5085087;28;20219;-65
2021/08/16 02:14:09;;;;;;;8.13;3.53;;;15.90;99.90;15.30;96507.00;;;;5085121;28;20670;-65
2021/08/16 02:16:58;;;;;;;4.17;3.37;;;15.80;99.90;15.40;96501.00;;;;5085908;28;20206;-66
2021/08/16 02:19:48;;;;;;;7.37;3.53;;;15.70;99.90;15.40;96504.00;;;;5085604;28;20616;-65
2021/08/16 02:22:38;;;;;;;4.50;3.20;;;15.70;99.90;15.50;96512.00;;;;5084794;28;20606;-65
2021/08/16 02:25:27;;;;;;;5.33;3.53;;;15.70;99.90;15.50;96507.00;;;;5084049;28;20708;-66
2021/08/16 02:28:17;;;;;;;7.50;3.53;;;15.70;99.90;15.50;96499.00;;;;5086437;28;20210;-66
2021/08/16 02:31:06;;;;;;;11.07;3.50;;;15.70;99.90;15.50;96499.00;;;;5085299;28;20583;-66
2021/08/16 02:33:54;;;;;;;5.57;4.20;;;15.70;99.90;15.50;96503.00;;;;5083932;28;20582;-65
2021/08/16 02:36:45;;;;;;;5.40;3.33;;;15.70;99.90;15.50;96498.00;;;;5084251;28;20233;-65
2021/08/16 02:39:35;;;;;;;4.30;2.90;;;15.70;99.90;15.30;96503.00;;;;5085942;28;20195;-66
2021/08/16 02:42:24;;;;;;;5.60;3.77;;;15.70;99.90;15.20;96500.00;;;;5083689;28;20230;-65
2021/08/16 02:45:13;;;;;;;8.03;3.63;;;15.60;99.90;15.30;96493.00;;;;5077764;28;20200;-66
2021/08/16 02:48:02;;;;;;;5.17;3.70;;;15.60;99.90;15.30;96511.00;;;;5065210;28;20211;-66
2021/08/16 02:50:51;;;;;;;4.30;3.63;;;15.60;99.90;15.30;96491.00;;;;5064626;28;20216;-66
2021/08/16 02:53:41;;;;;;;3.90;3.50;;;15.60;99.90;15.30;96494.00;;;;5064457;28;20583;-66
2021/08/16 02:56:30;;;;;;;5.53;3.93;;;15.60;99.90;15.20;96496.00;;;;5064651;28;20284;-66
2021/08/16 02:59:19;;;;;;;9.13;4.13;;;15.60;99.90;15.20;96495.00;;;;5063623;28;20200;-66
2021/08/16 03:02:08;;;;;;;6.43;4.07;;;15.50;99.90;15.20;96505.00;;;;5065052;28;20219;-66
2021/08/16 03:04:57;;;;;;;5.13;3.57;;;15.50;99.90;15.20;96497.00;;;;5064756;28;20666;-65
2021/08/16 03:07:46;;;;;;;5.23;3.73;;;15.50;99.90;15.00;96501.00;;;;5064909;28;20196;-66
2021/08/16 03:10:37;;;;;;;5.10;3.20;;;15.40;99.90;15.10;96502.00;;;;5062428;28;20317;-66
2021/08/16 03:13:26;;;;;;;6.50;3.37;;;15.40;99.90;15.20;96503.00;;;;5064128;28;20211;-66
2021/08/16 03:16:15;;;;;;;8.30;3.70;;;15.40;99.90;15.20;96484.00;;;;5042329;28;20224;-66
2021/08/16 03:19:04;;;;;;;7.13;4.23;;;15.40;99.90;15.20;96490.00;;;;5065001;28;20249;-66
2021/08/16 03:21:53;;;;;;;9.03;3.97;;;15.40;99.90;15.20;96489.00;;;;5063081;28;20219;-66
2021/08/16 03:24:41;;;;;;;9.10;3.57;;;15.40;99.90;15.00;96492.00;;;;5064161;28;20198;-66
2021/08/16 03:27:32;;;;;;;10.57;3.53;;;15.40;99.90;15.00;96484.00;;;;5063964;28;20196;-66
2021/08/16 03:30:21;;;;;;;6.23;4.10;;;15.40;99.90;14.80;96474.00;;;;5063364;28;20200;-66
2021/08/16 03:33:10;;;;;;;5.93;3.80;;;15.30;99.90;14.90;96474.00;;;;5063415;28;20563;-65
2021/08/16 03:35:59;;;;;;;5.30;3.53;;;15.20;99.90;14.80;96462.00;;;;5062636;28;20246;-66
2021/08/16 03:38:48;;;;;;;5.67;4.17;;;15.20;99.90;14.80;96467.00;;;;5064762;28;20203;-66
2021/08/16 03:41:37;;;;;;;4.83;4.00;;;15.20;99.90;14.90;96474.00;;;;5063922;28;20232;-66
2021/08/16 03:44:28;;;;;;;4.43;4.03;;;15.20;99.90;14.90;96473.00;;;;5064559;28;20705;-66
2021/08/16 03:47:17;;;;;;;6.77;3.67;;;15.20;99.90;14.90;96471.00;;;;5045132;28;20197;-66
2021/08/16 03:50:07;;;;;;;6.07;4.37;;;15.20;99.90;14.70;96480.00;;;;5044311;28;20244;-66
2021/08/16 03:52:56;;;;;;;4.10;3.70;;;15.10;99.90;14.40;96487.00;;;;5044892;28;20209;-66
2021/08/16 03:55:45;;;;;;;8.90;4.00;;;15.00;99.90;14.60;96500.00;;;;5045133;28;20224;-66
2021/08/16 03:58:33;;;;;;;7.40;3.83;;;15.00;99.90;14.70;96477.00;;;;5064887;28;20206;-65
2021/08/16 04:01:24;;;;;;;4.53;4.10;;;14.90;99.90;14.80;96471.00;;;;5064334;28;20224;-66
2021/08/16 04:04:13;;;;;;;6.77;4.33;;;15.00;99.90;14.60;96465.00;;;;5064715;28;20246;-66
2021/08/16 04:07:02;;;;;;;4.87;3.37;;;15.00;99.90;14.40;96459.00;;;;5063075;28;20582;-66
2021/08/16 04:09:50;;;;;;;11.93;4.80;;;14.90;99.90;14.40;96465.00;;;;5064364;28;20207;-66
2021/08/16 04:12:40;;;;;;;11.47;5.70;;;14.90;99.90;14.50;96460.00;;;;5067267;28;20718;-66
2021/08/16 04:15:28;;;;;;;9.00;5.80;;;14.80;99.90;14.60;96452.00;;;;5065501;28;20207;-66
2021/08/16 04:18:19;;;;;;;5.00;3.93;;;14.90;99.90;14.70;96448.00;;;;5067855;28;20253;-66
2021/08/16 04:21:08;;;;;;;14.80;4.90;;;14.90;99.90;14.70;96462.00;;;;5066182;28;20596;-66
2021/08/16 04:23:57;;;;;;;8.63;5.57;;;14.90;99.90;14.60;96459.00;;;;5066388;28;20224;-65
2021/08/16 04:26:46;;;;;;;8.20;5.80;;;14.90;99.90;14.70;96453.00;;;;5067860;28;20199;-66
2021/08/16 04:29:34;;;;;;;5.93;4.67;;;14.90;99.90;14.60;96464.00;;;;5066266;28;20196;-66
2021/08/16 04:32:23;;;;;;;7.37;4.70;;;14.90;99.90;14.70;96448.00;;;;5081415;28;20219;-66
2021/08/16 04:35:14;;;;;;;6.63;4.50;;;14.90;99.90;14.80;96453.00;;;;5066890;28;20207;-66
2021/08/16 04:38:03;;;;;;;5.93;4.97;;;15.00;99.90;14.70;96443.00;;;;5072804;28;20191;-66
2021/08/16 04:40:53;;;;;;;5.80;4.07;;;15.00;99.90;14.40;96454.00;;;;5080501;28;20212;-66
2021/08/16 04:43:42;;;;;;;10.83;6.77;;;14.90;99.90;14.40;96446.00;;;;5071477;28;20252;-66
2021/08/16 04:46:31;;;;;;;11.73;7.73;;;14.90;99.90;14.50;96456.00;;;;5079164;28;20193;-66
2021/08/16 04:49:20;;;;;;;13.87;7.53;;;14.80;99.90;14.70;96456.00;;;;5086273;28;20202;-65
2021/08/16 04:52:10;;;;;;;11.33;6.53;;;14.90;99.90;14.80;96468.00;;;;5086651;28;20634;-66
2021/08/16 04:54:59;;;;;;;9.07;7.77;;;14.90;99.90;14.90;96461.00;;;;5087342;28;20195;-66
2021/08/16 04:57:48;;;;;;;15.00;9.17;;;15.00;99.90;15.00;96459.00;;;;5088203;28;21344;-66
2021/08/16 05:00:38;;;;;;;12.40;7.63;;;15.10;99.90;14.90;96458.00;;;;5088848;28;20217;-66
2021/08/16 05:03:27;;;;;;;6.60;5.63;;;15.20;99.90;14.80;96461.00;;;;5087430;28;20203;-65
2021/08/16 05:06:17;;;;;;;7.70;5.27;;;15.20;99.90;14.80;96462.00;;;;5085769;28;20199;-66
2021/08/16 05:09:07;;;;;;;7.97;4.33;;;15.20;99.90;14.90;96466.00;;;;5087244;28;20562;-66
2021/08/16 05:11:56;;;;;;;5.73;4.53;;;15.20;99.90;14.90;96456.00;;;;5088820;28;20223;-66
2021/08/16 05:14:45;;;;;;;6.33;4.17;;;15.20;99.90;15.10;96459.00;;;;5088418;28;20195;-66
2021/08/16 05:17:35;;;;;;;5.23;4.03;;;15.30;99.90;15.30;96452.00;;;;5088401;28;20698;-65
2021/08/16 05:20:24;;;;;;;8.57;4.53;;;15.40;99.90;15.40;96458.00;;;;5085902;28;20580;-65
2021/08/16 05:23:13;;;;;;;6.10;4.20;;;15.50;99.90;15.70;96447.00;;;;5084190;28;20690;-66
2021/08/16 05:26:03;;;;;;;6.00;4.13;;;15.60;99.90;15.70;96452.00;;;;5073986;28;20195;-64
2021/08/16 05:28:52;;;;;;;6.57;4.80;;;15.70;99.90;16.00;96454.00;;;;5067522;28;20207;-67
2021/08/16 05:31:41;;;;;;;8.27;4.30;;;15.80;99.90;16.10;96460.00;;;;5068260;28;20742;-65
2021/08/16 05:34:30;;;;;;;5.57;4.13;;;16.00;99.90;16.30;96457.00;;;;5067535;28;20207;-67
2021/08/16 05:37:20;;;;;;;5.50;4.27;;;16.10;99.90;16.60;96468.00;;;;5066635;28;20251;-64
2021/08/16 05:40:11;;;;;;;4.77;4.27;;;16.30;99.90;16.80;96462.00;;;;5066305;28;20207;-65
2021/08/16 05:43:02;;;;;;;5.30;4.77;;;16.50;99.90;17.00;96458.00;;;;5066363;28;20200;-65
2021/08/16 05:45:51;;;;;;;5.03;3.80;;;16.70;99.90;16.90;96457.00;;;;5077523;28;20196;-64
2021/08/16 05:48:40;;;;;;;6.57;4.73;;;16.80;99.90;16.90;96464.00;;;;5086711;28;20211;-66
2021/08/16 05:51:29;;;;;;;5.90;4.37;;;16.90;99.90;16.90;96465.00;;;;5084699;28;20644;-64
2021/08/16 05:54:26;;;;;;;6.33;3.53;;;17.00;99.90;17.20;96465.00;;;;5086186;28;20203;-67
2021/08/16 05:57:15;;;;;;;9.80;3.93;;;17.10;99.90;17.30;96456.00;;;;5086238;28;20597;-66
2021/08/16 06:00:07;;;;;;;5.83;3.77;;;17.20;99.90;17.50;96443.00;;;;5064449;28;20231;-66
2021/08/16 06:02:56;;;;;;;4.37;3.97;;;17.30;99.90;17.70;96456.00;;;;5043557;28;20213;-66
2021/08/16 06:05:45;;;;;;;6.50;4.37;;;17.50;99.90;17.90;96459.00;;;;5045535;28;20205;-67
2021/08/16 06:08:34;;;;;;;7.10;3.53;;;17.60;99.90;17.30;96475.00;;;;5049442;28;20407;-66
2021/08/16 06:11:23;;;;;;;4.33;3.93;;;17.70;99.90;17.20;96462.00;;;;5052479;28;20620;-66
2021/08/16 06:14:12;;;;;;;4.60;3.90;;;17.70;99.90;17.50;96460.00;;;;5051206;28;20208;-66
2021/08/16 06:17:03;;;;;;;4.17;3.77;;;17.70;99.90;17.80;96462.00;;;;5055882;28;20877;-66
2021/08/16 06:19:52;;;;;;;5.37;4.30;;;17.80;99.90;17.90;96458.00;;;;5051836;28;20211;-66
2021/08/16 06:22:41;;;;;;;10.93;4.33;;;17.90;99.90;18.10;96461.00;;;;5062006;28;20674;-66
2021/08/16 06:25:30;;;;;;;4.23;3.80;;;18.00;99.90;18.30;96477.00;;;;5055854;28;20586;-66
2021/08/16 06:28:19;;;;;;;5.93;4.93;;;18.10;99.90;18.30;96474.00;;;;5055297;28;20209;-64
2021/08/16 06:31:08;;;;;;;5.23;4.27;;;18.20;99.90;18.70;96478.00;;;;5055204;28;20228;-64
2021/08/16 06:34:08;;;;;;;4.37;3.73;;;18.50;99.90;19.00;96471.00;;;;5061888;28;20881;-64
2021/08/16 06:36:57;;;;;;;5.50;4.00;;;18.60;99.90;19.30;96460.00;;;;5061346;28;20223;-65
2021/08/16 06:39:46;;;;;;;6.10;3.93;;;18.80;99.90;19.50;96463.00;;;;5060413;28;20200;-65
2021/08/16 06:42:36;;;;;;;4.97;3.67;;;19.10;99.90;19.70;96469.00;;;;5050300;28;20239;-64
2021/08/16 06:45:25;;;;;;;4.43;4.00;;;19.30;99.90;19.80;96473.00;;;;5055649;28;20259;-64
2021/08/16 06:48:16;;;;;;;4.80;3.30;;;19.50;99.90;19.70;96466.00;;;;5048933;28;20211;-65
2021/08/16 06:51:06;;;;;;;4.77;3.77;;;19.70;99.90;19.60;96470.00;;;;5054813;28;20224;-64
2021/08/16 06:53:55;;;;;;;3.70;3.37;;;19.70;99.90;19.90;96466.00;;;;5050697;28;20246;-67
2021/08/16 06:56:44;;;;;;;8.67;4.90;;;19.80;99.90;19.80;96466.00;;;;5037492;28;20212;-65
2021/08/16 06:59:34;;;;;;;4.47;3.37;;;19.80;99.90;20.10;96456.00;;;;5054137;28;20212;-64
2021/08/16 07:02:23;;;;;;;4.50;3.17;;;19.90;99.90;20.50;96453.00;;;;5055829;28;20223;-64
2021/08/16 07:05:12;;;;;;;7.00;4.43;;;19.90;99.90;20.80;96449.00;;;;5058130;28;20192;-64
2021/08/16 07:08:03;;;;;;;5.23;3.60;;;20.30;99.90;21.00;96432.00;;;;5054698;28;20208;-64
2021/08/16 07:10:52;;;;;;;8.00;4.17;;;20.50;99.90;21.20;96422.00;;;;5068728;28;20227;-65
2021/08/16 07:13:41;;;;;;;6.93;3.73;;;20.70;99.90;21.30;96434.00;;;;5071096;28;20211;-64
2021/08/16 07:16:30;;;;;;;3.17;2.73;;;20.90;99.90;21.40;96453.00;;;;5071097;28;20207;-64
2021/08/16 07:19:19;;;;;;;8.30;3.47;;;21.10;99.90;21.40;96459.00;;;;5074288;28;20235;-65
2021/08/16 07:22:08;;;;;;;4.47;3.03;;;21.20;99.90;21.60;96455.00;;;;5070964;28;20216;-65
2021/08/16 07:24:59;;;;;;;5.23;3.57;;;21.30;99.90;21.80;96459.00;;;;5079188;28;20219;-65
2021/08/16 07:27:48;;;;;;;5.17;3.67;;;21.50;99.90;22.00;96452.00;;;;5053236;28;20528;-65
2021/08/16 07:30:37;;;;;;;6.27;4.13;;;21.60;99.90;22.20;96455.00;;;;5059985;28;20214;-65
2021/08/16 07:33:27;;;;;;;6.50;3.57;;;21.80;99.90;22.40;96450.00;;;;5054617;28;20201;-65
2021/08/16 07:36:16;;;;;;;6.53;4.07;;;21.90;99.90;22.50;96452.00;;;;5062165;28;20211;-65
2021/08/16 07:39:05;;;;;;;8.60;3.60;;;22.10;99.90;22.50;96455.00;;;;5059508;28;20228;-66
2021/08/16 07:41:55;;;;;;;4.83;3.20;;;22.20;99.90;22.70;96453.00;;;;5077581;28;20242;-65
2021/08/16 07:44:44;;;;;;;8.70;4.30;;;22.40;99.90;22.70;96456.00;;;;5077937;28;20199;-65
2021/08/16 07:47:33;;;;;;;4.10;3.33;;;22.50;99.90;22.80;96463.00;;;;5081836;28;20204;-65
2021/08/16 07:50:22;;;;;;;4.67;3.70;;;22.70;99.90;23.00;96467.00;;;;5078178;28;20206;-65
2021/08/16 07:53:11;;;;;;;5.77;3.17;;;22.70;99.90;23.00;96462.00;;;;5076513;28;20227;-65
2021/08/16 07:56:02;;;;;;;5.57;3.37;;;22.90;99.90;23.10;96472.00;;;;5067497;28;20238;-65
2021/08/16 07:58:52;;;;;;;5.53;3.57;;;22.90;99.90;23.30;96470.00;;;;5083839;28;20223;-66
2021/08/16 08:01:42;;;;;;;5.83;3.43;;;23.10;99.90;23.50;96463.00;;;;5052040;28;20774;-65
2021/08/16 08:04:31;;;;;;;6.73;3.00;;;23.20;99.90;23.90;96472.00;;;;5048040;28;20210;-65
2021/08/16 08:07:21;;;;;;;8.37;3.43;;;23.40;99.90;23.90;96463.00;;;;5053052;28;20192;-65
2021/08/16 08:10:12;;;;;;;4.13;3.00;;;23.60;99.90;24.30;96460.00;;;;5060882;28;20201;-65
2021/08/16 08:13:01;;;;;;;3.77;2.93;;;23.70;99.90;24.70;96467.00;;;;5059453;28;20193;-66
2021/08/16 08:15:51;;;;;;;5.53;2.90;;;24.00;99.90;24.70;96455.00;;;;5062012;28;20206;-66
2021/08/16 08:18:40;;;;;;;5.07;2.97;;;24.20;99.90;24.90;96463.00;;;;5062692;28;20253;-66
2021/08/16 08:21:29;;;;;;;3.13;2.50;;;24.30;99.90;24.70;96457.00;;;;5052730;28;20239;-65
2021/08/16 08:24:18;;;;;;;4.70;3.17;;;24.50;99.90;24.90;96442.00;;;;5060259;28;20198;-65
2021/08/16 08:27:07;;;;;;;3.60;2.77;;;24.60;99.90;24.90;96463.00;;;;5056542;28;20211;-65
2021/08/16 08:29:56;;;;;;;5.50;3.57;;;24.70;99.90;24.40;96450.00;;;;5058365;28;20200;-65
2021/08/16 08:32:49;;;;;;;9.17;3.03;;;24.50;99.90;24.50;96457.00;;;;5051047;28;20226;-65
2021/08/16 08:35:38;;;;;;;6.63;3.47;;;24.50;99.90;25.00;96452.00;;;;5053710;28;20222;-65
2021/08/16 08:38:27;;;;;;;5.10;3.20;;;24.60;99.90;25.20;96454.00;;;;5052780;28;20225;-65
2021/08/16 08:41:18;;;;;;;6.37;3.40;;;24.70;99.90;25.50;96452.00;;;;5065842;28;20600;-65
2021/08/16 08:44:12;;;;;;;3.70;3.07;;;24.90;99.90;25.80;96437.00;;;;5066103;28;20594;-65
2021/08/16 08:47:01;;;;;;;5.93;3.40;;;25.10;99.90;26.00;96437.00;;;;5059081;28;20202;-65
2021/08/16 08:49:52;;;;;;;7.73;3.33;;;25.30;99.90;26.30;96423.00;;;;5069519;28;20235;-65
2021/08/16 08:52:40;;;;;;;6.37;3.10;;;25.50;99.90;26.50;96419.00;;;;5060146;28;20347;-65
2021/08/16 08:55:31;;;;;;;5.97;3.80;;;25.80;99.90;26.70;96422.00;;;;5057669;28;20205;-65
2021/08/16 08:58:36;;;;;;;4.07;2.80;;;26.00;99.90;26.80;96421.00;;;;5058691;28;20478;-66
2021/08/16 09:01:25;;;;;;;4.07;2.73;;;26.20;99.90;26.90;96409.00;;;;5058478;28;20611;-66
2021/08/16 09:04:13;;;;;;;3.40;2.80;;;26.30;99.90;27.20;96410.00;;;;5061304;28;20244;-65
2021/08/16 09:07:05;;;;;;;5.90;2.57;;;26.50;99.90;27.30;96407.00;;;;5057706;28;20213;-66
2021/08/16 09:09:55;;;;;;;4.90;2.63;;;26.70;99.90;27.40;96415.00;;;;5057870;28;20686;-66
2021/08/16 09:12:46;;;;;;;5.63;3.50;;;26.80;99.90;27.60;96402.00;;;;5064565;28;20238;-66
2021/08/16 09:15:34;;;;;;;4.07;3.37;;;27.00;99.90;27.90;96404.00;;;;5055859;28;20207;-66
2021/08/16 09:18:31;;;;;;;3.40;2.83;;;27.20;99.90;28.10;96403.00;;;;5056070;28;20236;-66
2021/08/16 09:21:29;;;;;;;5.67;3.27;;;27.40;99.90;28.40;96407.00;;;;5053703;28;20870;-66
2021/08/16 09:24:25;;;;;;;5.90;3.30;;;27.60;99.90;28.50;96407.00;;;;5060993;28;20201;-66
2021/08/16 09:27:15;;;;;;;5.73;3.23;;;27.80;99.90;28.40;96403.00;;;;5063685;28;20201;-67
2021/08/16 09:30:05;;;;;;;8.67;3.57;;;27.90;99.90;28.30;96404.00;;;;5061646;28;20197;-66
2021/08/16 09:32:54;;;;;;;8.23;4.50;;;27.90;99.90;28.30;96400.00;;;;5059038;28;20202;-67
2021/08/16 09:35:54;;;;;;;6.30;3.30;;;28.00;99.90;28.70;96395.00;;;;5057715;28;20201;-67
2021/08/16 09:38:44;;;;;;;5.63;3.93;;;28.00;99.90;29.10;96393.00;;;;5056637;28;20218;-66
2021/08/16 09:41:34;;;;;;;7.80;4.17;;;28.20;99.90;29.30;96389.00;;;;5050365;28;20261;-67
2021/08/16 09:44:23;;;;;;;7.30;3.93;;;28.50;99.90;29.40;96393.00;;;;5056673;28;20229;-66
2021/08/16 09:47:12;;;;;;;4.87;3.80;;;28.70;99.90;29.50;96400.00;;;;5058047;28;20200;-67
2021/08/16 09:50:02;;;;;;;17.67;5.63;;;28.90;99.90;29.60;96403.00;;;;5059285;28;20209;-67
2021/08/16 09:52:52;;;;;;;9.20;5.05;;;29.00;99.90;29.60;96394.00;;;;5052333;28;20364;-67
2021/08/16 09:55:43;;;;;;;4.38;3.13;;;29.10;99.90;29.80;96399.00;;;;5064622;28;20218;-67
2021/08/16 09:58:34;;;;;;;7.15;4.20;;;29.20;98.30;29.60;96394.00;;;;5064048;28;20222;-66
2021/08/16 10:01:24;;;;;;;7.38;4.45;;;29.20;97.90;29.50;96397.00;;;;5050467;28;20493;-67
2021/08/16 10:04:13;;;;;;;6.22;3.13;;;29.20;97.90;29.10;96409.00;;;;5059673;28;20549;-67
2021/08/16 10:07:03;;;;;;;5.47;3.58;;;29.10;96.90;28.90;96405.00;;;;5049406;28;20216;-67
2021/08/16 10:10:07;;;;;;;5.30;3.50;;;28.90;96.50;28.80;96400.00;;;;5055180;28;20287;-67
2021/08/16 10:12:58;;;;;;;5.90;3.10;;;28.50;96.50;28.80;96402.00;;;;5059719;28;20209;-67
2021/08/16 10:15:54;;;;;;;7.30;3.65;;;28.70;97.10;28.90;96401.00;;;;5052079;28;20219;-67
2021/08/16 10:18:47;;;;;;;6.32;3.97;;;28.70;97.70;28.70;96399.00;;;;5059010;28;20626;-67
2021/08/16 10:21:38;;;;;;;5.10;3.30;;;28.70;99.90;28.60;96400.00;;;;5060529;28;20220;-69
2021/08/16 10:24:29;;;;;;;5.20;3.15;;;28.60;98.00;28.50;96403.00;;;;5067125;28;20206;-67
2021/08/16 10:27:18;;;;;;;3.50;2.80;;;28.60;97.20;28.60;96407.00;;;;5062935;28;20203;-67
2021/08/16 10:30:10;;;;;;;4.80;3.03;;;28.60;94.10;28.60;96408.00;;;;5064629;28;20203;-67
2021/08/16 10:33:05;;;;;;;5.18;2.88;;;28.50;91.30;28.80;96411.00;;;;5061724;28;20221;-67
2021/08/16 10:35:57;;;;;;;3.70;3.25;;;28.50;91.90;29.00;96412.00;;;;5064682;28;20843;-67
2021/08/16 10:38:56;;;;;;;9.57;4.90;;;28.60;93.00;29.10;96415.00;;;;5053234;28;20724;-68
2021/08/16 10:41:45;;;;;;;11.02;4.78;;;28.70;94.10;29.10;96406.00;;;;5066086;28;20229;-67
2021/08/16 10:44:40;;;;;;;6.35;3.58;;;28.70;94.00;29.10;96411.00;;;;5060006;28;20232;-67
2021/08/16 10:47:32;;;;;;;5.15;3.58;;;28.80;95.10;29.20;96400.00;;;;5072067;28;20207;-68
2021/08/16 10:50:32;;;;;;;11.10;5.00;;;28.80;96.50;29.10;96407.00;;;;5074732;28;20231;-67
2021/08/16 10:53:21;;;;;;;8.13;4.35;;;28.80;97.20;28.80;96409.00;;;;5086987;28;20206;-68
2021/08/16 10:56:17;;;;;;;5.95;3.13;;;28.80;95.60;28.60;96402.00;;;;5075160;28;20236;-67
2021/08/16 10:59:06;;;;;;;11.20;3.72;;;28.60;93.50;28.40;96398.00;;;;5071819;28;20218;-67
2021/08/16 11:01:57;;;;;;;6.07;3.30;;;28.50;93.20;28.10;96393.00;;;;5068793;28;20239;-67
2021/08/16 11:04:52;;;;;;;4.10;3.50;;;28.30;95.20;27.80;96376.00;;;;5077135;28;20209;-68
2021/08/16 11:07:42;;;;;;;5.30;3.70;;;28.00;94.90;27.80;96374.00;;;;5076832;28;20542;-67
2021/08/16 11:10:41;;;;;;;6.43;3.63;;;27.90;95.50;27.70;96364.00;;;;5077579;28;20721;-67
2021/08/16 11:13:33;;;;;;;8.60;4.07;;;27.80;97.00;27.40;96362.00;;;;5074171;28;20217;-67
2021/08/16 11:16:22;;;;;;;5.90;3.37;;;27.70;99.90;27.10;96370.00;;;;5075855;28;20706;-68
2021/08/16 11:19:13;;;;;;;5.73;4.17;;;27.50;99.90;27.10;96364.00;;;;5076732;28;20231;-69
2021/08/16 11:22:03;;;;;;;6.60;3.73;;;27.30;99.90;27.10;96366.00;;;;5057190;28;20742;-70
2021/08/16 11:24:54;;;;;;;6.93;5.13;;;27.20;99.90;26.90;96367.00;;;;5045214;28;20211;-70
2021/08/16 11:27:45;;;;;;;9.93;4.87;;;27.10;99.90;26.80;96368.00;;;;5054216;28;20200;-70
2021/08/16 11:30:34;;;;;;;4.33;3.43;;;27.00;99.90;26.70;96383.00;;;;5051225;28;20587;-70
2021/08/16 11:33:25;;;;;;;5.70;4.40;;;26.90;99.90;26.50;96383.00;;;;5061576;28;20681;-71
2021/08/16 11:36:15;;;;;;;4.73;4.17;;;26.80;99.90;26.30;96382.00;;;;5053392;28;20205;-72
2021/08/16 11:39:05;;;;;;;6.10;4.27;;;26.60;99.90;26.20;96376.00;;;;5074751;28;20613;-72
2021/08/16 11:42:00;;;;;;;4.60;3.97;;;26.50;99.90;26.20;96379.00;;;;5056408;28;20259;-69
2021/08/16 11:45:00;;;;;;;6.37;4.00;;;26.30;99.90;26.10;96389.00;;;;5073405;28;20204;-70
2021/08/16 11:47:51;;;;;;;8.23;4.67;;;26.30;99.90;26.00;96401.00;;;;5068005;28;20211;-69
2021/08/16 11:50:41;;;;;;;6.37;4.83;;;26.20;99.90;26.00;96404.00;;;;5073680;28;20212;-70
2021/08/16 11:53:41;;;;;;;6.30;4.53;;;26.10;99.90;26.00;96407.00;;;;5069350;28;20200;-69
2021/08/16 11:56:30;;;;;;;8.07;4.90;;;26.00;99.90;25.80;96404.00;;;;5077212;28;20208;-69
2021/08/16 11:59:21;;;;;;;8.27;4.90;;;25.90;99.90;25.70;96400.00;;;;5071285;28;20215;-69
2021/08/16 12:02:10;;;;;;;7.53;4.87;;;25.90;99.90;25.60;96408.00;;;;5082542;28;20216;-70
2021/08/16 12:05:00;;;;;;;6.30;4.20;;;25.80;99.90;25.40;96406.00;;;;5076762;28;20217;-67
2021/08/16 12:07:49;;;;;;;8.57;4.60;;;25.60;99.90;25.20;96415.00;;;;5076879;28;20398;-68
2021/08/16 12:10:44;;;;;;;9.73;5.10;;;25.50;99.90;25.00;96440.00;;;;5072355;28;20734;-67
2021/08/16 12:13:34;;;;;;;7.47;5.03;;;25.40;99.90;24.60;96469.00;;;;5069304;28;20215;-68
2021/08/16 12:16:32;;;;;;;7.00;5.03;;;25.20;99.90;24.20;96486.00;;;;5078173;28;20214;-67
2021/08/16 12:19:22;;;;;;;9.27;5.07;;;24.90;99.90;24.20;96501.00;;;;5079728;28;20254;-67
2021/08/16 12:22:17;;;;;;;6.90;4.87;;;24.70;99.90;24.30;96505.00;;;;5054219;28;20443;-66
2021/08/16 12:25:08;;;;;;;6.20;4.97;;;24.50;99.90;24.20;96480.00;;;;5056002;28;20197;-67
2021/08/16 12:27:59;;;;;;;5.80;4.87;;;24.40;99.90;23.80;96471.00;;;;5058911;28;20214;-66
2021/08/16 12:30:48;;;;;;;7.77;5.43;;;24.30;99.90;23.40;96475.00;;;;5057072;28;20220;-66
2021/08/16 12:33:39;;;;;;;5.97;4.40;;;24.10;99.90;23.30;96456.00;;;;5062450;28;20200;-66
2021/08/16 12:36:40;;;;;;;7.43;5.40;;;23.80;99.90;23.20;96421.00;;;;5076046;28;20210;-66